Magnolia, Arkansas
Current Conditions -  °F | °C
As of 5:53 AM on Friday 21 Nov 2014 (Local Time) from KELD Reporting Station
Overcast Overcast  
Wind Chill: 52°   Ceiling: 6000
Heat Index: 52°   Visibility: 9mi
Dew Point: 50°   Wind: 3mph
Humidity: 93%   Direction: 120°ESE
Pressure: 30.21"   Gusts: NA
Location:  33.27°N, 93.24°W
Report Text: KELD 211153Z AUTO 12003KT 9SM FEW030 OVC060 11/10 A3021 RMK AO2 RAE40 SLP227 P0000 60000 T01110100 10117 20111 53003
Loading
Personal Weather Stations






























Interactive Weather Map New forecast layout! Learn more

10-Day Weather Forecast

Advertisements
Track Severe Weather on mobile